Busselton, Australia
Current Conditions -  °F | °C
As of 3:30 AM on Saturday 01 Nov 2014 (Local Time) from YPJT Reporting Station
Clear Clear  
Wind Chill: 59°   Ceiling: Unl
Heat Index: 59°   Visibility: 6mi
Dew Point: 45°   Wind: 13mph
Humidity: 59%   Direction: 80°E
Pressure: 30.03"   Gusts: NA
Location:  33.65°S, 115.35°E
Report Text: YPJT 311930Z AUTO 08011KT 9999 // NCD 15/07 Q1017
Loading
Personal Weather Stations






























Interactive Weather Map
Tropical Storm Tracking
New forecast layout! Learn more

10-Day Weather Forecast

Advertisements
Track Severe Weather on mobile